sensor_id;sensor_type;location;lat;lon;timestamp;temperature;humidity
66670;DHT22;53568;52.164;4.472;2024-01-16T00:00:12;4.69;60.92
66670;DHT22;53568;52.164;4.472;2024-01-16T00:02:38;4.76;61.05
66670;DHT22;53568;52.164;4.472;2024-01-16T00:05:03;4.79;61.38
66670;DHT22;53568;52.164;4.472;2024-01-16T00:07:29;4.53;62.10
66670;DHT22;53568;52.164;4.472;2024-01-16T00:09:55;4.51;62.51
66670;DHT22;53568;52.164;4.472;2024-01-16T00:12:20;4.60;62.73
66670;DHT22;53568;52.164;4.472;2024-01-16T00:14:46;4.57;66.40
66670;DHT22;53568;52.164;4.472;2024-01-16T00:17:11;4.48;70.39
66670;DHT22;53568;52.164;4.472;2024-01-16T00:19:37;4.57;71.80
66670;DHT22;53568;52.164;4.472;2024-01-16T00:22:03;4.57;73.77
66670;DHT22;53568;52.164;4.472;2024-01-16T00:24:30;4.33;75.42
66670;DHT22;53568;52.164;4.472;2024-01-16T00:26:56;4.31;75.26
66670;DHT22;53568;52.164;4.472;2024-01-16T00:29:22;4.22;74.53
66670;DHT22;53568;52.164;4.472;2024-01-16T00:31:47;4.06;74.66
66670;DHT22;53568;52.164;4.472;2024-01-16T00:34:13;4.01;75.49
66670;DHT22;53568;52.164;4.472;2024-01-16T00:36:38;4.07;75.35
66670;DHT22;53568;52.164;4.472;2024-01-16T00:39:04;3.91;74.26
66670;DHT22;53568;52.164;4.472;2024-01-16T00:41:30;3.89;74.09
66670;DHT22;53568;52.164;4.472;2024-01-16T00:43:55;3.87;74.32
66670;DHT22;53568;52.164;4.472;2024-01-16T00:46:21;3.86;74.26
66670;DHT22;53568;52.164;4.472;2024-01-16T00:48:46;3.89;73.83
66670;DHT22;53568;52.164;4.472;2024-01-16T00:51:13;3.97;73.48
66670;DHT22;53568;52.164;4.472;2024-01-16T00:53:42;3.97;73.64
66670;DHT22;53568;52.164;4.472;2024-01-16T00:56:08;4.09;73.40
66670;DHT22;53568;52.164;4.472;2024-01-16T00:58:34;4.11;72.85
66670;DHT22;53568;52.164;4.472;2024-01-16T01:00:59;4.13;72.40
66670;DHT22;53568;52.164;4.472;2024-01-16T01:03:25;3.94;72.59
66670;DHT22;53568;52.164;4.472;2024-01-16T01:05:51;3.82;73.40
66670;DHT22;53568;52.164;4.472;2024-01-16T01:08:17;3.59;75.48
66670;DHT22;53568;52.164;4.472;2024-01-16T01:10:42;3.28;77.55
66670;DHT22;53568;52.164;4.472;2024-01-16T01:13:08;2.92;79.64
66670;DHT22;53568;52.164;4.472;2024-01-16T01:15:33;2.60;81.02
66670;DHT22;53568;52.164;4.472;2024-01-16T01:17:59;2.26;82.84
66670;DHT22;53568;52.164;4.472;2024-01-16T01:20:25;2.07;83.69
66670;DHT22;53568;52.164;4.472;2024-01-16T01:22:51;2.22;83.28
66670;DHT22;53568;52.164;4.472;2024-01-16T01:25:16;2.26;82.64
66670;DHT22;53568;52.164;4.472;2024-01-16T01:27:42;2.32;82.20
66670;DHT22;53568;52.164;4.472;2024-01-16T01:30:08;2.50;81.82
66670;DHT22;53568;52.164;4.472;2024-01-16T01:32:38;2.51;81.39
66670;DHT22;53568;52.164;4.472;2024-01-16T01:35:05;2.65;81.00
66670;DHT22;53568;52.164;4.472;2024-01-16T01:37:31;2.84;80.71
66670;DHT22;53568;52.164;4.472;2024-01-16T01:39:56;2.84;80.20
66670;DHT22;53568;52.164;4.472;2024-01-16T01:42:22;2.98;79.87
66670;DHT22;53568;52.164;4.472;2024-01-16T01:44:48;3.11;79.18
66670;DHT22;53568;52.164;4.472;2024-01-16T01:47:14;3.21;79.13
66670;DHT22;53568;52.164;4.472;2024-01-16T01:49:40;3.29;79.61
66670;DHT22;53568;52.164;4.472;2024-01-16T01:52:07;3.29;79.30
66670;DHT22;53568;52.164;4.472;2024-01-16T01:54:36;3.23;78.62
66670;DHT22;53568;52.164;4.472;2024-01-16T01:57:03;3.19;78.07
66670;DHT22;53568;52.164;4.472;2024-01-16T01:59:31;3.23;77.23
66670;DHT22;53568;52.164;4.472;2024-01-16T02:01:56;3.40;76.98
66670;DHT22;53568;52.164;4.472;2024-01-16T02:04:24;3.48;75.83
66670;DHT22;53568;52.164;4.472;2024-01-16T02:06:51;3.56;75.71
66670;DHT22;53568;52.164;4.472;2024-01-16T02:09:17;3.62;75.77
66670;DHT22;53568;52.164;4.472;2024-01-16T02:11:43;3.72;75.55
66670;DHT22;53568;52.164;4.472;2024-01-16T02:14:09;3.80;75.03
66670;DHT22;53568;52.164;4.472;2024-01-16T02:16:40;3.77;74.54
66670;DHT22;53568;52.164;4.472;2024-01-16T02:19:07;3.82;74.20
66670;DHT22;53568;52.164;4.472;2024-01-16T02:21:53;3.86;73.61
66670;DHT22;53568;52.164;4.472;2024-01-16T02:24:21;3.96;73.45
66670;DHT22;53568;52.164;4.472;2024-01-16T02:26:46;4.04;73.17
66670;DHT22;53568;52.164;4.472;2024-01-16T02:29:12;4.16;73.01
66670;DHT22;53568;52.164;4.472;2024-01-16T02:31:38;4.18;72.11
66670;DHT22;53568;52.164;4.472;2024-01-16T02:34:04;4.22;71.79
66670;DHT22;53568;52.164;4.472;2024-01-16T02:36:30;4.22;71.79
66670;DHT22;53568;52.164;4.472;2024-01-16T02:38:56;4.24;71.81
66670;DHT22;53568;52.164;4.472;2024-01-16T02:41:22;4.25;71.93
66670;DHT22;53568;52.164;4.472;2024-01-16T02:43:48;4.31;72.01
66670;DHT22;53568;52.164;4.472;2024-01-16T02:46:14;4.33;71.93
66670;DHT22;53568;52.164;4.472;2024-01-16T02:48:40;4.37;72.14
66670;DHT22;53568;52.164;4.472;2024-01-16T02:51:05;4.41;72.44
66670;DHT22;53568;52.164;4.472;2024-01-16T02:53:31;4.41;73.87
66670;DHT22;53568;52.164;4.472;2024-01-16T02:55:57;4.37;74.46
66670;DHT22;53568;52.164;4.472;2024-01-16T02:58:30;4.33;74.70
66670;DHT22;53568;52.164;4.472;2024-01-16T03:00:58;4.21;75.02
66670;DHT22;53568;52.164;4.472;2024-01-16T03:03:24;4.22;75.26
66670;DHT22;53568;52.164;4.472;2024-01-16T03:05:50;4.22;75.48
66670;DHT22;53568;52.164;4.472;2024-01-16T03:08:15;4.27;75.59
66670;DHT22;53568;52.164;4.472;2024-01-16T03:10:41;4.31;75.69
66670;DHT22;53568;52.164;4.472;2024-01-16T03:13:07;4.34;75.77
66670;DHT22;53568;52.164;4.472;2024-01-16T03:15:33;4.31;75.96
66670;DHT22;53568;52.164;4.472;2024-01-16T03:17:59;4.10;76.17
66670;DHT22;53568;52.164;4.472;2024-01-16T03:20:25;3.99;75.76
66670;DHT22;53568;52.164;4.472;2024-01-16T03:22:51;3.75;76.51
66670;DHT22;53568;52.164;4.472;2024-01-16T03:25:18;3.72;77.33
66670;DHT22;53568;52.164;4.472;2024-01-16T03:27:44;3.69;77.68
66670;DHT22;53568;52.164;4.472;2024-01-16T03:30:10;3.77;77.40
66670;DHT22;53568;52.164;4.472;2024-01-16T03:32:36;3.85;77.04
66670;DHT22;53568;52.164;4.472;2024-01-16T03:35:02;3.82;76.57
66670;DHT22;53568;52.164;4.472;2024-01-16T03:37:28;3.85;76.10
66670;DHT22;53568;52.164;4.472;2024-01-16T03:39:53;3.91;76.02
66670;DHT22;53568;52.164;4.472;2024-01-16T03:42:20;3.97;75.68
66670;DHT22;53568;52.164;4.472;2024-01-16T03:44:46;4.00;75.32
66670;DHT22;53568;52.164;4.472;2024-01-16T03:47:12;4.00;75.21
66670;DHT22;53568;52.164;4.472;2024-01-16T03:49:38;4.13;75.30
66670;DHT22;53568;52.164;4.472;2024-01-16T03:52:04;4.20;75.38
66670;DHT22;53568;52.164;4.472;2024-01-16T03:54:30;4.07;76.33
66670;DHT22;53568;52.164;4.472;2024-01-16T03:56:56;4.11;76.64
66670;DHT22;53568;52.164;4.472;2024-01-16T03:59:21;4.17;76.58
66670;DHT22;53568;52.164;4.472;2024-01-16T04:01:47;4.14;76.98
66670;DHT22;53568;52.164;4.472;2024-01-16T04:04:15;4.21;76.71
66670;DHT22;53568;52.164;4.472;2024-01-16T04:06:40;4.17;76.97
66670;DHT22;53568;52.164;4.472;2024-01-16T04:09:07;4.18;76.99
66670;DHT22;53568;52.164;4.472;2024-01-16T04:11:33;4.24;76.78
66670;DHT22;53568;52.164;4.472;2024-01-16T04:13:59;4.31;76.70
66670;DHT22;53568;52.164;4.472;2024-01-16T04:16:25;4.29;76.51
66670;DHT22;53568;52.164;4.472;2024-01-16T04:18:51;4.37;76.56
66670;DHT22;53568;52.164;4.472;2024-01-16T04:21:16;4.44;76.02
66670;DHT22;53568;52.164;4.472;2024-01-16T04:23:42;4.34;76.21
66670;DHT22;53568;52.164;4.472;2024-01-16T04:26:07;4.31;76.27
66670;DHT22;53568;52.164;4.472;2024-01-16T04:28:33;4.30;75.86
66670;DHT22;53568;52.164;4.472;2024-01-16T04:31:00;4.31;76.09
66670;DHT22;53568;52.164;4.472;2024-01-16T04:33:27;4.27;75.86
66670;DHT22;53568;52.164;4.472;2024-01-16T04:35:53;4.13;75.72
66670;DHT22;53568;52.164;4.472;2024-01-16T04:38:18;4.11;75.85
66670;DHT22;53568;52.164;4.472;2024-01-16T04:40:44;4.22;75.84
66670;DHT22;53568;52.164;4.472;2024-01-16T04:43:09;4.21;74.87
66670;DHT22;53568;52.164;4.472;2024-01-16T04:45:35;4.11;74.96
66670;DHT22;53568;52.164;4.472;2024-01-16T04:48:00;4.11;74.61
66670;DHT22;53568;52.164;4.472;2024-01-16T04:50:26;4.14;74.01
66670;DHT22;53568;52.164;4.472;2024-01-16T04:53:00;4.14;73.93
66670;DHT22;53568;52.164;4.472;2024-01-16T04:55:29;4.22;73.97
66670;DHT22;53568;52.164;4.472;2024-01-16T04:57:56;4.31;73.55
66670;DHT22;53568;52.164;4.472;2024-01-16T05:00:23;4.45;73.81
66670;DHT22;53568;52.164;4.472;2024-01-16T05:02:49;4.55;73.13
66670;DHT22;53568;52.164;4.472;2024-01-16T05:05:15;4.54;72.41
66670;DHT22;53568;52.164;4.472;2024-01-16T05:07:41;4.68;72.00
66670;DHT22;53568;52.164;4.472;2024-01-16T05:10:09;4.67;70.94
66670;DHT22;53568;52.164;4.472;2024-01-16T05:12:35;4.64;70.61
66670;DHT22;53568;52.164;4.472;2024-01-16T05:15:01;4.68;69.35
66670;DHT22;53568;52.164;4.472;2024-01-16T05:17:27;4.74;68.31
66670;DHT22;53568;52.164;4.472;2024-01-16T05:19:52;4.75;67.60
66670;DHT22;53568;52.164;4.472;2024-01-16T05:22:18;4.79;67.58
66670;DHT22;53568;52.164;4.472;2024-01-16T05:24:43;4.89;67.41
66670;DHT22;53568;52.164;4.472;2024-01-16T05:27:09;4.93;66.54
66670;DHT22;53568;52.164;4.472;2024-01-16T05:29:34;4.98;65.97
66670;DHT22;53568;52.164;4.472;2024-01-16T05:32:03;4.91;65.70
66670;DHT22;53568;52.164;4.472;2024-01-16T05:34:29;4.91;65.07
66670;DHT22;53568;52.164;4.472;2024-01-16T05:36:54;4.92;64.56
66670;DHT22;53568;52.164;4.472;2024-01-16T05:39:20;5.00;64.86
66670;DHT22;53568;52.164;4.472;2024-01-16T05:41:46;5.08;64.30
66670;DHT22;53568;52.164;4.472;2024-01-16T05:44:12;4.98;62.45
66670;DHT22;53568;52.164;4.472;2024-01-16T05:46:37;4.92;61.63
66670;DHT22;53568;52.164;4.472;2024-01-16T05:49:03;4.81;60.94
66670;DHT22;53568;52.164;4.472;2024-01-16T05:51:29;4.76;60.77
66670;DHT22;53568;52.164;4.472;2024-01-16T05:53:55;4.79;61.33
66670;DHT22;53568;52.164;4.472;2024-01-16T05:56:21;4.78;61.57
66670;DHT22;53568;52.164;4.472;2024-01-16T05:58:46;4.84;61.68
66670;DHT22;53568;52.164;4.472;2024-01-16T06:01:12;4.81;61.93
66670;DHT22;53568;52.164;4.472;2024-01-16T06:03:41;4.79;61.92
66670;DHT22;53568;52.164;4.472;2024-01-16T06:06:07;4.89;61.68
66670;DHT22;53568;52.164;4.472;2024-01-16T06:08:33;4.84;61.56
66670;DHT22;53568;52.164;4.472;2024-01-16T06:10:59;4.89;61.22
66670;DHT22;53568;52.164;4.472;2024-01-16T06:13:24;4.89;60.74
66670;DHT22;53568;52.164;4.472;2024-01-16T06:15:50;4.85;61.08
66670;DHT22;53568;52.164;4.472;2024-01-16T06:18:16;4.69;60.50
66670;DHT22;53568;52.164;4.472;2024-01-16T06:20:41;4.74;60.30
66670;DHT22;53568;52.164;4.472;2024-01-16T06:23:07;4.76;60.52
66670;DHT22;53568;52.164;4.472;2024-01-16T06:25:32;4.71;60.58
66670;DHT22;53568;52.164;4.472;2024-01-16T06:27:58;4.71;60.38
66670;DHT22;53568;52.164;4.472;2024-01-16T06:30:23;4.69;60.21
66670;DHT22;53568;52.164;4.472;2024-01-16T06:32:49;4.75;60.15
66670;DHT22;53568;52.164;4.472;2024-01-16T06:35:16;4.75;60.23
66670;DHT22;53568;52.164;4.472;2024-01-16T06:37:42;4.75;60.14
66670;DHT22;53568;52.164;4.472;2024-01-16T06:40:08;4.81;60.20
66670;DHT22;53568;52.164;4.472;2024-01-16T06:42:34;4.79;60.29
66670;DHT22;53568;52.164;4.472;2024-01-16T06:45:01;4.81;60.21
66670;DHT22;53568;52.164;4.472;2024-01-16T06:47:27;4.84;60.26
66670;DHT22;53568;52.164;4.472;2024-01-16T06:49:53;4.82;60.22
66670;DHT22;53568;52.164;4.472;2024-01-16T06:52:19;4.79;60.51
66670;DHT22;53568;52.164;4.472;2024-01-16T06:54:44;4.78;60.76
66670;DHT22;53568;52.164;4.472;2024-01-16T06:57:10;4.84;61.08
66670;DHT22;53568;52.164;4.472;2024-01-16T06:59:36;4.89;61.31
66670;DHT22;53568;52.164;4.472;2024-01-16T07:02:01;4.78;61.87
66670;DHT22;53568;52.164;4.472;2024-01-16T07:04:27;4.79;61.67
66670;DHT22;53568;52.164;4.472;2024-01-16T07:06:53;4.79;61.39
66670;DHT22;53568;52.164;4.472;2024-01-16T07:09:18;4.68;61.14
66670;DHT22;53568;52.164;4.472;2024-01-16T07:11:46;4.71;60.70
66670;DHT22;53568;52.164;4.472;2024-01-16T07:14:12;4.58;61.00
66670;DHT22;53568;52.164;4.472;2024-01-16T07:16:38;4.64;60.78
66670;DHT22;53568;52.164;4.472;2024-01-16T07:19:04;4.65;60.81
66670;DHT22;53568;52.164;4.472;2024-01-16T07:21:29;4.69;60.20
66670;DHT22;53568;52.164;4.472;2024-01-16T07:23:55;4.75;60.38
66670;DHT22;53568;52.164;4.472;2024-01-16T07:26:22;4.71;60.23
66670;DHT22;53568;52.164;4.472;2024-01-16T07:28:48;4.69;60.28
66670;DHT22;53568;52.164;4.472;2024-01-16T07:31:14;4.76;60.19
66670;DHT22;53568;52.164;4.472;2024-01-16T07:33:40;4.62;60.45
66670;DHT22;53568;52.164;4.472;2024-01-16T07:36:07;4.68;60.52
66670;DHT22;53568;52.164;4.472;2024-01-16T07:38:33;4.69;60.96
66670;DHT22;53568;52.164;4.472;2024-01-16T07:40:59;4.75;61.14
66670;DHT22;53568;52.164;4.472;2024-01-16T07:43:25;4.72;61.44
66670;DHT22;53568;52.164;4.472;2024-01-16T07:45:50;4.72;61.24
66670;DHT22;53568;52.164;4.472;2024-01-16T07:48:16;4.76;61.25
66670;DHT22;53568;52.164;4.472;2024-01-16T07:50:41;4.76;61.22
66670;DHT22;53568;52.164;4.472;2024-01-16T07:53:07;4.75;61.20
66670;DHT22;53568;52.164;4.472;2024-01-16T07:55:32;4.74;60.67
66670;DHT22;53568;52.164;4.472;2024-01-16T07:57:58;4.68;60.34
66670;DHT22;53568;52.164;4.472;2024-01-16T08:00:23;4.60;60.35
66670;DHT22;53568;52.164;4.472;2024-01-16T08:02:49;4.62;60.34
66670;DHT22;53568;52.164;4.472;2024-01-16T08:05:14;4.69;60.10
66670;DHT22;53568;52.164;4.472;2024-01-16T08:07:42;4.67;59.75
66670;DHT22;53568;52.164;4.472;2024-01-16T08:10:09;4.60;59.80
66670;DHT22;53568;52.164;4.472;2024-01-16T08:12:34;4.58;59.75
66670;DHT22;53568;52.164;4.472;2024-01-16T08:15:00;4.57;59.59
66670;DHT22;53568;52.164;4.472;2024-01-16T08:17:25;4.60;59.57
66670;DHT22;53568;52.164;4.472;2024-01-16T08:19:51;4.62;59.32
66670;DHT22;53568;52.164;4.472;2024-01-16T08:22:16;4.55;58.77
66670;DHT22;53568;52.164;4.472;2024-01-16T08:24:42;4.55;58.70
66670;DHT22;53568;52.164;4.472;2024-01-16T08:27:07;4.50;57.67
66670;DHT22;53568;52.164;4.472;2024-01-16T08:29:33;4.50;57.67
66670;DHT22;53568;52.164;4.472;2024-01-16T08:31:59;4.50;56.76
66670;DHT22;53568;52.164;4.472;2024-01-16T08:34:24;4.51;57.18
66670;DHT22;53568;52.164;4.472;2024-01-16T08:36:49;4.51;57.02
66670;DHT22;53568;52.164;4.472;2024-01-16T08:39:15;4.60;56.69
66670;DHT22;53568;52.164;4.472;2024-01-16T08:41:42;4.55;56.73
66670;DHT22;53568;52.164;4.472;2024-01-16T08:44:07;4.54;56.74
66670;DHT22;53568;52.164;4.472;2024-01-16T08:46:33;4.61;56.21
66670;DHT22;53568;52.164;4.472;2024-01-16T08:48:58;4.58;55.98
66670;DHT22;53568;52.164;4.472;2024-01-16T08:51:23;4.62;55.77
66670;DHT22;53568;52.164;4.472;2024-01-16T08:53:49;4.61;55.55
66670;DHT22;53568;52.164;4.472;2024-01-16T08:56:14;4.64;55.03
66670;DHT22;53568;52.164;4.472;2024-01-16T08:58:42;4.69;54.94
66670;DHT22;53568;52.164;4.472;2024-01-16T09:01:07;4.64;54.72
66670;DHT22;53568;52.164;4.472;2024-01-16T09:03:34;4.69;55.64
66670;DHT22;53568;52.164;4.472;2024-01-16T09:06:00;4.72;56.09
66670;DHT22;53568;52.164;4.472;2024-01-16T09:08:26;4.65;55.08
66670;DHT22;53568;52.164;4.472;2024-01-16T09:10:53;4.67;55.15
66670;DHT22;53568;52.164;4.472;2024-01-16T09:13:18;4.68;54.33
66670;DHT22;53568;52.164;4.472;2024-01-16T09:15:46;4.60;54.22
66670;DHT22;53568;52.164;4.472;2024-01-16T09:18:12;4.61;54.14
66670;DHT22;53568;52.164;4.472;2024-01-16T09:20:38;4.72;53.34
66670;DHT22;53568;52.164;4.472;2024-01-16T09:23:04;4.75;52.38
66670;DHT22;53568;52.164;4.472;2024-01-16T09:25:29;4.75;52.87
66670;DHT22;53568;52.164;4.472;2024-01-16T09:27:55;4.68;53.50
66670;DHT22;53568;52.164;4.472;2024-01-16T09:30:21;4.67;53.83
66670;DHT22;53568;52.164;4.472;2024-01-16T09:32:48;4.71;54.10
66670;DHT22;53568;52.164;4.472;2024-01-16T09:35:14;4.72;54.30
66670;DHT22;53568;52.164;4.472;2024-01-16T09:37:40;4.71;53.02
66670;DHT22;53568;52.164;4.472;2024-01-16T09:40:06;4.74;52.84
66670;DHT22;53568;52.164;4.472;2024-01-16T09:42:32;4.69;52.27
66670;DHT22;53568;52.164;4.472;2024-01-16T09:45:00;4.79;52.45
66670;DHT22;53568;52.164;4.472;2024-01-16T09:47:30;4.79;52.57
66670;DHT22;53568;52.164;4.472;2024-01-16T09:49:57;4.89;52.60
66670;DHT22;53568;52.164;4.472;2024-01-16T09:52:25;4.93;52.39
66670;DHT22;53568;52.164;4.472;2024-01-16T09:54:50;4.86;52.84
66670;DHT22;53568;52.164;4.472;2024-01-16T09:57:19;4.88;52.82
66670;DHT22;53568;52.164;4.472;2024-01-16T09:59:47;4.99;53.08
66670;DHT22;53568;52.164;4.472;2024-01-16T10:02:14;5.04;52.96
66670;DHT22;53568;52.164;4.472;2024-01-16T10:04:43;5.05;52.85
66670;DHT22;53568;52.164;4.472;2024-01-16T10:07:12;5.15;52.13
66670;DHT22;53568;52.164;4.472;2024-01-16T10:09:38;5.15;51.30
66670;DHT22;53568;52.164;4.472;2024-01-16T10:12:05;5.18;51.09
66670;DHT22;53568;52.164;4.472;2024-01-16T10:14:33;5.15;51.26
66670;DHT22;53568;52.164;4.472;2024-01-16T10:16:59;5.12;49.57
66670;DHT22;53568;52.164;4.472;2024-01-16T10:19:29;5.13;50.11
66670;DHT22;53568;52.164;4.472;2024-01-16T10:22:04;5.15;50.81
66670;DHT22;53568;52.164;4.472;2024-01-16T10:24:31;4.99;51.24
66670;DHT22;53568;52.164;4.472;2024-01-16T10:27:00;5.05;51.68
66670;DHT22;53568;52.164;4.472;2024-01-16T10:29:27;5.15;51.93
66670;DHT22;53568;52.164;4.472;2024-01-16T10:31:53;5.13;51.98
66670;DHT22;53568;52.164;4.472;2024-01-16T10:34:19;5.04;52.23
66670;DHT22;53568;52.164;4.472;2024-01-16T10:36:46;5.00;51.90
66670;DHT22;53568;52.164;4.472;2024-01-16T10:39:13;5.12;50.79
66670;DHT22;53568;52.164;4.472;2024-01-16T10:41:39;5.11;51.01
66670;DHT22;53568;52.164;4.472;2024-01-16T10:44:05;5.08;51.57
66670;DHT22;53568;52.164;4.472;2024-01-16T10:46:35;4.95;52.07
66670;DHT22;53568;52.164;4.472;2024-01-16T10:49:03;5.11;52.06
66670;DHT22;53568;52.164;4.472;2024-01-16T10:51:31;5.12;51.77
66670;DHT22;53568;52.164;4.472;2024-01-16T10:54:04;5.19;51.42
66670;DHT22;53568;52.164;4.472;2024-01-16T10:56:35;5.30;51.82
66670;DHT22;53568;52.164;4.472;2024-01-16T11:01:31;5.28;52.67
66670;DHT22;53568;52.164;4.472;2024-01-16T11:03:58;5.25;53.33
66670;DHT22;53568;52.164;4.472;2024-01-16T11:06:26;5.04;53.92
66670;DHT22;53568;52.164;4.472;2024-01-16T11:08:54;5.06;52.97
66670;DHT22;53568;52.164;4.472;2024-01-16T11:11:20;4.98;53.25
66670;DHT22;53568;52.164;4.472;2024-01-16T11:13:48;4.98;53.33
66670;DHT22;53568;52.164;4.472;2024-01-16T11:16:15;5.08;52.75
66670;DHT22;53568;52.164;4.472;2024-01-16T11:18:41;5.05;52.41
66670;DHT22;53568;52.164;4.472;2024-01-16T11:21:13;5.13;52.22
66670;DHT22;53568;52.164;4.472;2024-01-16T11:23:40;5.19;51.30
66670;DHT22;53568;52.164;4.472;2024-01-16T11:28:49;5.26;51.58
66670;DHT22;53568;52.164;4.472;2024-01-16T11:31:28;5.29;51.05
66670;DHT22;53568;52.164;4.472;2024-01-16T11:33:53;5.12;51.03
66670;DHT22;53568;52.164;4.472;2024-01-16T11:36:50;5.12;51.88
66670;DHT22;53568;52.164;4.472;2024-01-16T11:39:24;5.16;52.30
66670;DHT22;53568;52.164;4.472;2024-01-16T11:41:55;5.19;52.19
66670;DHT22;53568;52.164;4.472;2024-01-16T11:47:06;5.28;52.11
66670;DHT22;53568;52.164;4.472;2024-01-16T11:49:32;5.32;51.50
66670;DHT22;53568;52.164;4.472;2024-01-16T11:51:58;5.18;51.72
66670;DHT22;53568;52.164;4.472;2024-01-16T11:54:24;5.16;52.20
66670;DHT22;53568;52.164;4.472;2024-01-16T12:05:06;5.26;51.68
66670;DHT22;53568;52.164;4.472;2024-01-16T12:07:48;5.23;52.04
66670;DHT22;53568;52.164;4.472;2024-01-16T12:10:16;5.26;52.41
66670;DHT22;53568;52.164;4.472;2024-01-16T12:12:42;5.23;51.37
66670;DHT22;53568;52.164;4.472;2024-01-16T12:15:19;5.13;51.80
66670;DHT22;53568;52.164;4.472;2024-01-16T12:17:59;5.25;51.57
66670;DHT22;53568;52.164;4.472;2024-01-16T12:20:27;5.32;51.43
66670;DHT22;53568;52.164;4.472;2024-01-16T12:25:24;5.66;51.64
66670;DHT22;53568;52.164;4.472;2024-01-16T12:30:35;5.78;51.54
66670;DHT22;53568;52.164;4.472;2024-01-16T12:33:12;5.91;51.46
66670;DHT22;53568;52.164;4.472;2024-01-16T12:35:39;5.93;51.54
66670;DHT22;53568;52.164;4.472;2024-01-16T12:38:07;5.87;49.88
66670;DHT22;53568;52.164;4.472;2024-01-16T12:40:36;5.91;51.11
66670;DHT22;53568;52.164;4.472;2024-01-16T12:43:03;5.83;51.10
66670;DHT22;53568;52.164;4.472;2024-01-16T12:45:30;5.78;50.52
66670;DHT22;53568;52.164;4.472;2024-01-16T12:47:57;5.76;50.53
66670;DHT22;53568;52.164;4.472;2024-01-16T12:50:27;5.81;51.15
66670;DHT22;53568;52.164;4.472;2024-01-16T12:53:06;5.73;49.92
66670;DHT22;53568;52.164;4.472;2024-01-16T12:55:33;5.57;50.26
66670;DHT22;53568;52.164;4.472;2024-01-16T12:58:18;5.74;51.23
66670;DHT22;53568;52.164;4.472;2024-01-16T13:00:44;5.76;52.08
66670;DHT22;53568;52.164;4.472;2024-01-16T13:03:25;5.70;52.09
66670;DHT22;53568;52.164;4.472;2024-01-16T13:06:00;5.70;51.64
66670;DHT22;53568;52.164;4.472;2024-01-16T13:08:26;5.69;50.57
66670;DHT22;53568;52.164;4.472;2024-01-16T13:11:18;5.76;51.25
66670;DHT22;53568;52.164;4.472;2024-01-16T13:13:47;5.74;51.48
66670;DHT22;53568;52.164;4.472;2024-01-16T13:16:17;5.74;51.15
66670;DHT22;53568;52.164;4.472;2024-01-16T13:18:43;5.83;51.86
66670;DHT22;53568;52.164;4.472;2024-01-16T13:21:08;5.84;51.87
66670;DHT22;53568;52.164;4.472;2024-01-16T13:23:34;5.78;51.90
66670;DHT22;53568;52.164;4.472;2024-01-16T13:26:00;5.84;51.78
66670;DHT22;53568;52.164;4.472;2024-01-16T13:28:29;5.78;51.99
66670;DHT22;53568;52.164;4.472;2024-01-16T13:30:55;5.77;52.61
66670;DHT22;53568;52.164;4.472;2024-01-16T13:33:23;5.74;50.61
66670;DHT22;53568;52.164;4.472;2024-01-16T13:35:53;5.57;49.76
66670;DHT22;53568;52.164;4.472;2024-01-16T13:38:22;5.49;50.31
66670;DHT22;53568;52.164;4.472;2024-01-16T13:40:49;5.40;50.65
66670;DHT22;53568;52.164;4.472;2024-01-16T13:43:16;5.50;51.58
66670;DHT22;53568;52.164;4.472;2024-01-16T13:45:41;5.53;52.33
66670;DHT22;53568;52.164;4.472;2024-01-16T13:48:07;5.56;52.74
66670;DHT22;53568;52.164;4.472;2024-01-16T13:50:33;5.67;52.90
66670;DHT22;53568;52.164;4.472;2024-01-16T13:53:00;5.86;53.04
66670;DHT22;53568;52.164;4.472;2024-01-16T13:55:25;5.87;53.14
66670;DHT22;53568;52.164;4.472;2024-01-16T13:57:51;5.90;53.23
66670;DHT22;53568;52.164;4.472;2024-01-16T14:00:17;5.97;52.46
66670;DHT22;53568;52.164;4.472;2024-01-16T14:02:47;5.93;51.53
66670;DHT22;53568;52.164;4.472;2024-01-16T14:05:18;5.96;51.29
66670;DHT22;53568;52.164;4.472;2024-01-16T14:07:51;5.89;51.41
66670;DHT22;53568;52.164;4.472;2024-01-16T14:10:22;5.77;52.05
66670;DHT22;53568;52.164;4.472;2024-01-16T14:12:50;5.89;52.37
66670;DHT22;53568;52.164;4.472;2024-01-16T14:15:18;5.91;52.64
66670;DHT22;53568;52.164;4.472;2024-01-16T14:17:48;5.89;52.78
66670;DHT22;53568;52.164;4.472;2024-01-16T14:20:15;5.93;53.20
66670;DHT22;53568;52.164;4.472;2024-01-16T14:22:41;5.78;54.04
66670;DHT22;53568;52.164;4.472;2024-01-16T14:25:12;5.94;54.14
66670;DHT22;53568;52.164;4.472;2024-01-16T14:27:42;6.07;54.05
66670;DHT22;53568;52.164;4.472;2024-01-16T14:30:14;6.17;54.00
66670;DHT22;53568;52.164;4.472;2024-01-16T14:32:42;6.13;54.32
66670;DHT22;53568;52.164;4.472;2024-01-16T14:35:09;6.07;54.16
66670;DHT22;53568;52.164;4.472;2024-01-16T14:37:35;5.94;54.09
66670;DHT22;53568;52.164;4.472;2024-01-16T14:40:03;5.98;53.71
66670;DHT22;53568;52.164;4.472;2024-01-16T14:42:32;5.94;54.20
66670;DHT22;53568;52.164;4.472;2024-01-16T14:45:00;5.84;54.14
66670;DHT22;53568;52.164;4.472;2024-01-16T14:47:25;5.90;54.45
66670;DHT22;53568;52.164;4.472;2024-01-16T14:49:51;5.86;54.85
66670;DHT22;53568;52.164;4.472;2024-01-16T14:52:20;5.96;54.91
66670;DHT22;53568;52.164;4.472;2024-01-16T14:54:45;6.00;55.21
66670;DHT22;53568;52.164;4.472;2024-01-16T14:57:11;5.93;55.62
66670;DHT22;53568;52.164;4.472;2024-01-16T14:59:37;5.91;55.67
66670;DHT22;53568;52.164;4.472;2024-01-16T15:02:03;6.00;55.52
66670;DHT22;53568;52.164;4.472;2024-01-16T15:04:41;5.94;55.71
66670;DHT22;53568;52.164;4.472;2024-01-16T15:07:07;6.03;55.53
66670;DHT22;53568;52.164;4.472;2024-01-16T15:09:33;6.04;55.74
66670;DHT22;53568;52.164;4.472;2024-01-16T15:12:06;6.08;56.02
66670;DHT22;53568;52.164;4.472;2024-01-16T15:14:32;6.11;55.94
66670;DHT22;53568;52.164;4.472;2024-01-16T15:16:59;6.07;55.67
66670;DHT22;53568;52.164;4.472;2024-01-16T15:19:26;6.08;55.85
66670;DHT22;53568;52.164;4.472;2024-01-16T15:21:51;6.08;55.56
66670;DHT22;53568;52.164;4.472;2024-01-16T15:24:17;6.06;55.54
66670;DHT22;53568;52.164;4.472;2024-01-16T15:26:52;6.07;55.64
66670;DHT22;53568;52.164;4.472;2024-01-16T15:29:18;6.14;55.67
66670;DHT22;53568;52.164;4.472;2024-01-16T15:31:44;6.07;56.01
66670;DHT22;53568;52.164;4.472;2024-01-16T15:34:09;6.11;55.85
66670;DHT22;53568;52.164;4.472;2024-01-16T15:36:35;6.08;55.97
66670;DHT22;53568;52.164;4.472;2024-01-16T15:39:00;6.07;56.02
66670;DHT22;53568;52.164;4.472;2024-01-16T15:41:27;6.04;56.19
66670;DHT22;53568;52.164;4.472;2024-01-16T15:43:53;6.06;55.85
66670;DHT22;53568;52.164;4.472;2024-01-16T15:46:18;6.04;55.36
66670;DHT22;53568;52.164;4.472;2024-01-16T15:48:44;6.13;55.41
66670;DHT22;53568;52.164;4.472;2024-01-16T15:51:10;6.08;55.50
66670;DHT22;53568;52.164;4.472;2024-01-16T15:53:36;6.16;55.36
66670;DHT22;53568;52.164;4.472;2024-01-16T15:56:02;6.11;55.41
66670;DHT22;53568;52.164;4.472;2024-01-16T15:58:31;6.11;55.57
66670;DHT22;53568;52.164;4.472;2024-01-16T16:00:58;6.11;55.66
66670;DHT22;53568;52.164;4.472;2024-01-16T16:03:23;6.08;55.70